sensor_id;sensor_type;location;lat;lon;timestamp;pressure;altitude;pressure_sealevel;temperature;humidity
9721;BME280;4899;42.644;23.366;2023-02-13T00:00:50;95938.25;;;-1.17;100.00
9721;BME280;4899;42.644;23.366;2023-02-13T00:03:16;95932.25;;;-1.10;100.00
9721;BME280;4899;42.644;23.366;2023-02-13T00:05:41;95928.00;;;-0.89;100.00
9721;BME280;4899;42.644;23.366;2023-02-13T00:08:07;95946.31;;;-0.68;100.00
9721;BME280;4899;42.644;23.366;2023-02-13T00:10:32;95932.13;;;-0.62;100.00
9721;BME280;4899;42.644;23.366;2023-02-13T00:12:58;95944.34;;;-0.59;100.00
9721;BME280;4899;42.644;23.366;2023-02-13T00:15:23;95931.72;;;-0.66;100.00
9721;BME280;4899;42.644;23.366;2023-02-13T00:17:49;95929.97;;;-0.78;100.00
9721;BME280;4899;42.644;23.366;2023-02-13T00:20:14;95946.13;;;-0.73;100.00
9721;BME280;4899;42.644;23.366;2023-02-13T00:22:41;95921.59;;;-0.99;100.00
9721;BME280;4899;42.644;23.366;2023-02-13T00:25:07;95950.34;;;-0.86;100.00
9721;BME280;4899;42.644;23.366;2023-02-13T00:27:32;95945.31;;;-0.86;100.00
9721;BME280;4899;42.644;23.366;2023-02-13T00:29:58;95949.59;;;-0.87;100.00
9721;BME280;4899;42.644;23.366;2023-02-13T00:32:24;95949.53;;;-1.00;100.00
9721;BME280;4899;42.644;23.366;2023-02-13T00:34:49;95958.72;;;-0.86;100.00
9721;BME280;4899;42.644;23.366;2023-02-13T00:37:15;95948.22;;;-0.89;100.00
9721;BME280;4899;42.644;23.366;2023-02-13T00:39:41;95962.78;;;-0.91;100.00
9721;BME280;4899;42.644;23.366;2023-02-13T00:42:06;95947.22;;;-1.02;100.00
9721;BME280;4899;42.644;23.366;2023-02-13T00:44:32;95945.66;;;-1.03;100.00
9721;BME280;4899;42.644;23.366;2023-02-13T00:46:57;95952.44;;;-1.03;100.00
9721;BME280;4899;42.644;23.366;2023-02-13T00:49:23;95952.88;;;-0.86;100.00
9721;BME280;4899;42.644;23.366;2023-02-13T00:51:49;95967.69;;;-0.70;100.00
9721;BME280;4899;42.644;23.366;2023-02-13T00:54:14;95917.72;;;-0.88;100.00
9721;BME280;4899;42.644;23.366;2023-02-13T00:56:42;95962.03;;;-0.66;100.00
9721;BME280;4899;42.644;23.366;2023-02-13T00:59:07;95951.72;;;-0.77;100.00
9721;BME280;4899;42.644;23.366;2023-02-13T01:01:33;95966.31;;;-0.73;100.00
9721;BME280;4899;42.644;23.366;2023-02-13T01:03:58;95960.47;;;-0.80;100.00
9721;BME280;4899;42.644;23.366;2023-02-13T01:06:24;95957.69;;;-1.05;100.00
9721;BME280;4899;42.644;23.366;2023-02-13T01:08:49;95955.94;;;-1.17;100.00
9721;BME280;4899;42.644;23.366;2023-02-13T01:11:15;95960.03;;;-1.10;100.00
9721;BME280;4899;42.644;23.366;2023-02-13T01:13:41;95965.44;;;-1.13;100.00
9721;BME280;4899;42.644;23.366;2023-02-13T01:16:06;95958.44;;;-1.17;100.00
9721;BME280;4899;42.644;23.366;2023-02-13T01:18:32;95956.13;;;-1.19;100.00
9721;BME280;4899;42.644;23.366;2023-02-13T01:20:59;95959.63;;;-1.07;100.00
9721;BME280;4899;42.644;23.366;2023-02-13T01:23:30;95958.09;;;-1.08;100.00
9721;BME280;4899;42.644;23.366;2023-02-13T01:25:55;95961.00;;;-1.11;100.00
9721;BME280;4899;42.644;23.366;2023-02-13T01:28:21;95972.88;;;-0.91;100.00
9721;BME280;4899;42.644;23.366;2023-02-13T01:30:52;95959.88;;;-0.82;100.00
9721;BME280;4899;42.644;23.366;2023-02-13T01:33:17;95965.53;;;-0.73;100.00
9721;BME280;4899;42.644;23.366;2023-02-13T01:35:43;95961.63;;;-0.76;100.00
9721;BME280;4899;42.644;23.366;2023-02-13T01:38:08;95964.78;;;-0.74;100.00
9721;BME280;4899;42.644;23.366;2023-02-13T01:40:34;95972.34;;;-0.67;100.00
9721;BME280;4899;42.644;23.366;2023-02-13T01:42:59;95966.13;;;-0.71;100.00
9721;BME280;4899;42.644;23.366;2023-02-13T01:45:29;95974.84;;;-0.94;100.00
9721;BME280;4899;42.644;23.366;2023-02-13T01:48:14;95971.72;;;-0.96;100.00
9721;BME280;4899;42.644;23.366;2023-02-13T01:50:49;95971.72;;;-0.96;100.00
9721;BME280;4899;42.644;23.366;2023-02-13T01:56:02;95973.41;;;-1.16;100.00
9721;BME280;4899;42.644;23.366;2023-02-13T01:58:32;95975.53;;;-1.19;100.00
9721;BME280;4899;42.644;23.366;2023-02-13T02:01:00;95975.16;;;-1.16;100.00
9721;BME280;4899;42.644;23.366;2023-02-13T02:03:32;95968.34;;;-1.16;100.00
9721;BME280;4899;42.644;23.366;2023-02-13T02:06:01;95972.66;;;-1.03;100.00
9721;BME280;4899;42.644;23.366;2023-02-13T02:08:28;95978.72;;;-0.84;100.00
9721;BME280;4899;42.644;23.366;2023-02-13T02:10:57;95979.53;;;-0.64;100.00
9721;BME280;4899;42.644;23.366;2023-02-13T02:13:25;95964.97;;;-0.55;100.00
9721;BME280;4899;42.644;23.366;2023-02-13T02:15:51;95974.47;;;-0.51;100.00
9721;BME280;4899;42.644;23.366;2023-02-13T02:18:20;95974.13;;;-0.48;100.00
9721;BME280;4899;42.644;23.366;2023-02-13T02:32:09;95969.56;;;-0.99;100.00
9721;BME280;4899;42.644;23.366;2023-02-13T02:35:08;95972.50;;;-0.95;100.00
9721;BME280;4899;42.644;23.366;2023-02-13T02:38:13;95971.72;;;-0.89;100.00
9721;BME280;4899;42.644;23.366;2023-02-13T02:47:17;95984.63;;;-0.38;100.00
9721;BME280;4899;42.644;23.366;2023-02-13T02:49:38;95993.56;;;-0.15;100.00
9721;BME280;4899;42.644;23.366;2023-02-13T03:01:31;96015.34;;;-0.21;100.00
9721;BME280;4899;42.644;23.366;2023-02-13T03:04:28;96012.03;;;-0.48;100.00
9721;BME280;4899;42.644;23.366;2023-02-13T03:07:16;96000.94;;;-0.47;100.00
9721;BME280;4899;42.644;23.366;2023-02-13T03:09:52;95991.19;;;-0.50;100.00
9721;BME280;4899;42.644;23.366;2023-02-13T03:12:45;95995.09;;;-0.54;100.00
9721;BME280;4899;42.644;23.366;2023-02-13T03:15:32;96000.38;;;-0.49;100.00
9721;BME280;4899;42.644;23.366;2023-02-13T03:17:59;95999.75;;;-0.51;100.00
9721;BME280;4899;42.644;23.366;2023-02-13T03:21:25;95997.81;;;-0.62;100.00
9721;BME280;4899;42.644;23.366;2023-02-13T03:24:24;95996.25;;;-0.63;100.00
9721;BME280;4899;42.644;23.366;2023-02-13T03:29:57;95995.88;;;-0.67;100.00
9721;BME280;4899;42.644;23.366;2023-02-13T03:35:15;96001.31;;;-0.70;100.00
9721;BME280;4899;42.644;23.366;2023-02-13T03:38:29;96012.59;;;-0.66;100.00
9721;BME280;4899;42.644;23.366;2023-02-13T03:41:11;96007.53;;;-0.59;100.00
9721;BME280;4899;42.644;23.366;2023-02-13T03:46:17;96007.34;;;-0.57;100.00
9721;BME280;4899;42.644;23.366;2023-02-13T03:48:44;95997.63;;;-0.60;100.00
9721;BME280;4899;42.644;23.366;2023-02-13T03:51:55;96009.88;;;-0.51;100.00
9721;BME280;4899;42.644;23.366;2023-02-13T03:54:26;96003.06;;;-0.50;100.00
9721;BME280;4899;42.644;23.366;2023-02-13T03:57:16;96000.56;;;-0.44;100.00
9721;BME280;4899;42.644;23.366;2023-02-13T04:00:04;95997.22;;;-0.57;100.00
9721;BME280;4899;42.644;23.366;2023-02-13T04:02:33;95989.84;;;-0.52;100.00
9721;BME280;4899;42.644;23.366;2023-02-13T04:05:16;95997.44;;;-0.46;100.00
9721;BME280;4899;42.644;23.366;2023-02-13T04:07:43;95995.50;;;-0.44;100.00
9721;BME280;4899;42.644;23.366;2023-02-13T04:10:13;96000.16;;;-0.41;100.00
9721;BME280;4899;42.644;23.366;2023-02-13T04:13:00;96008.72;;;-0.48;100.00
9721;BME280;4899;42.644;23.366;2023-02-13T04:15:37;95991.59;;;-0.53;100.00
9721;BME280;4899;42.644;23.366;2023-02-13T04:18:12;95994.91;;;-0.52;100.00
9721;BME280;4899;42.644;23.366;2023-02-13T04:20:39;96006.00;;;-0.40;100.00
9721;BME280;4899;42.644;23.366;2023-02-13T04:23:07;95997.44;;;-0.46;100.00
9721;BME280;4899;42.644;23.366;2023-02-13T04:25:34;96003.66;;;-0.42;100.00
9721;BME280;4899;42.644;23.366;2023-02-13T04:28:00;96009.31;;;-0.40;100.00
9721;BME280;4899;42.644;23.366;2023-02-13T04:30:26;96014.16;;;-0.38;100.00
9721;BME280;4899;42.644;23.366;2023-02-13T04:32:51;96018.06;;;-0.42;100.00
9721;BME280;4899;42.644;23.366;2023-02-13T04:35:17;96014.56;;;-0.41;100.00
9721;BME280;4899;42.644;23.366;2023-02-13T04:37:43;96002.31;;;-0.38;100.00
9721;BME280;4899;42.644;23.366;2023-02-13T04:40:09;96002.50;;;-0.33;100.00
9721;BME280;4899;42.644;23.366;2023-02-13T04:42:35;96002.88;;;-0.36;100.00
9721;BME280;4899;42.644;23.366;2023-02-13T04:45:00;95998.59;;;-0.35;100.00
9721;BME280;4899;42.644;23.366;2023-02-13T04:47:26;95998.03;;;-0.37;100.00
9721;BME280;4899;42.644;23.366;2023-02-13T04:49:51;96003.28;;;-0.39;100.00
9721;BME280;4899;42.644;23.366;2023-02-13T04:52:17;96014.97;;;-0.24;100.00
9721;BME280;4899;42.644;23.366;2023-02-13T04:54:42;96010.25;;;-0.01;100.00
9721;BME280;4899;42.644;23.366;2023-02-13T04:57:08;96016.47;;;0.16;100.00
9721;BME280;4899;42.644;23.366;2023-02-13T04:59:33;96019.22;;;0.28;100.00
9721;BME280;4899;42.644;23.366;2023-02-13T05:01:59;96027.16;;;0.38;100.00
9721;BME280;4899;42.644;23.366;2023-02-13T05:04:25;96017.63;;;0.40;100.00
9721;BME280;4899;42.644;23.366;2023-02-13T05:06:51;96007.50;;;0.34;100.00
9721;BME280;4899;42.644;23.366;2023-02-13T05:09:17;96025.47;;;0.06;100.00
9721;BME280;4899;42.644;23.366;2023-02-13T05:11:42;96013.03;;;-0.22;100.00
9721;BME280;4899;42.644;23.366;2023-02-13T05:14:09;96030.91;;;-0.17;100.00
9721;BME280;4899;42.644;23.366;2023-02-13T05:16:35;96023.31;;;-0.31;100.00
9721;BME280;4899;42.644;23.366;2023-02-13T05:19:01;96030.31;;;-0.19;100.00
9721;BME280;4899;42.644;23.366;2023-02-13T05:21:27;96034.81;;;-0.21;100.00
9721;BME280;4899;42.644;23.366;2023-02-13T05:24:11;96040.63;;;-0.34;100.00
9721;BME280;4899;42.644;23.366;2023-02-13T05:26:37;96039.06;;;-0.42;100.00
9721;BME280;4899;42.644;23.366;2023-02-13T05:29:02;96028.56;;;-0.45;100.00
9721;BME280;4899;42.644;23.366;2023-02-13T05:31:46;96028.56;;;-0.39;100.00
9721;BME280;4899;42.644;23.366;2023-02-13T05:34:14;96042.56;;;-0.29;100.00
9721;BME280;4899;42.644;23.366;2023-02-13T05:36:39;96039.28;;;-0.17;100.00
9721;BME280;4899;42.644;23.366;2023-02-13T05:39:05;96044.13;;;0.05;100.00
9721;BME280;4899;42.644;23.366;2023-02-13T05:41:31;96044.91;;;0.18;100.00
9721;BME280;4899;42.644;23.366;2023-02-13T05:43:57;96048.59;;;0.29;100.00
9721;BME280;4899;42.644;23.366;2023-02-13T05:46:22;96047.22;;;0.40;100.00
9721;BME280;4899;42.644;23.366;2023-02-13T05:48:48;96058.88;;;0.41;100.00
9721;BME280;4899;42.644;23.366;2023-02-13T05:51:13;96051.09;;;0.55;100.00
9721;BME280;4899;42.644;23.366;2023-02-13T05:53:39;96039.56;;;0.66;100.00
9721;BME280;4899;42.644;23.366;2023-02-13T05:56:05;96046.81;;;0.43;100.00
9721;BME280;4899;42.644;23.366;2023-02-13T05:58:32;96055.59;;;0.20;100.00
9721;BME280;4899;42.644;23.366;2023-02-13T06:00:58;96042.78;;;0.02;100.00
9721;BME280;4899;42.644;23.366;2023-02-13T06:03:25;96030.31;;;-0.19;100.00
9721;BME280;4899;42.644;23.366;2023-02-13T06:05:52;96051.31;;;-0.06;100.00
9721;BME280;4899;42.644;23.366;2023-02-13T06:08:18;96052.69;;;-0.10;100.00
9721;BME280;4899;42.644;23.366;2023-02-13T06:10:45;96062.41;;;-0.13;100.00
9721;BME280;4899;42.644;23.366;2023-02-13T06:13:11;96063.78;;;-0.17;100.00
9721;BME280;4899;42.644;23.366;2023-02-13T06:15:36;96069.03;;;-0.19;100.00
9721;BME280;4899;42.644;23.366;2023-02-13T06:18:02;96065.91;;;-0.14;100.00
9721;BME280;4899;42.644;23.366;2023-02-13T06:20:28;96072.56;;;0.00;100.00
9721;BME280;4899;42.644;23.366;2023-02-13T06:22:53;96068.06;;;-0.05;100.00
9721;BME280;4899;42.644;23.366;2023-02-13T06:25:20;96073.31;;;-0.06;100.00
9721;BME280;4899;42.644;23.366;2023-02-13T06:27:45;96076.81;;;-0.07;100.00
9721;BME280;4899;42.644;23.366;2023-02-13T06:30:12;96069.22;;;-0.01;100.00
9721;BME280;4899;42.644;23.366;2023-02-13T06:32:37;96074.28;;;-0.01;100.00
9721;BME280;4899;42.644;23.366;2023-02-13T06:35:03;96085.00;;;0.08;100.00
9721;BME280;4899;42.644;23.366;2023-02-13T06:37:29;96071.75;;;0.13;100.00
9721;BME280;4899;42.644;23.366;2023-02-13T06:39:54;96073.72;;;0.30;100.00
9721;BME280;4899;42.644;23.366;2023-02-13T06:42:20;96073.66;;;0.57;100.00
9721;BME280;4899;42.644;23.366;2023-02-13T06:44:46;96077.50;;;0.86;100.00
9721;BME280;4899;42.644;23.366;2023-02-13T06:47:11;96073.19;;;1.00;100.00
9721;BME280;4899;42.644;23.366;2023-02-13T06:49:37;96082.25;;;1.14;100.00
9721;BME280;4899;42.644;23.366;2023-02-13T06:52:03;96079.31;;;1.17;100.00
9721;BME280;4899;42.644;23.366;2023-02-13T06:54:28;96071.16;;;1.15;100.00
9721;BME280;4899;42.644;23.366;2023-02-13T06:56:54;96080.47;;;1.28;100.00
9721;BME280;4899;42.644;23.366;2023-02-13T06:59:19;96081.25;;;1.28;100.00
9721;BME280;4899;42.644;23.366;2023-02-13T07:01:45;96072.56;;;1.04;100.00
9721;BME280;4899;42.644;23.366;2023-02-13T07:04:11;96074.53;;;0.96;100.00
9721;BME280;4899;42.644;23.366;2023-02-13T07:06:36;96082.31;;;0.94;100.00
9721;BME280;4899;42.644;23.366;2023-02-13T07:09:02;96078.25;;;0.86;100.00
9721;BME280;4899;42.644;23.366;2023-02-13T07:11:28;96078.28;;;0.73;100.00
9721;BME280;4899;42.644;23.366;2023-02-13T07:13:54;96074.19;;;0.72;100.00
9721;BME280;4899;42.644;23.366;2023-02-13T07:16:19;96074.41;;;0.77;100.00
9721;BME280;4899;42.644;23.366;2023-02-13T07:18:45;96065.78;;;0.91;100.00
9721;BME280;4899;42.644;23.366;2023-02-13T07:21:10;96081.56;;;1.00;100.00
9721;BME280;4899;42.644;23.366;2023-02-13T07:23:36;96082.69;;;1.04;100.00
9721;BME280;4899;42.644;23.366;2023-02-13T07:26:02;96087.13;;;1.15;100.00
9721;BME280;4899;42.644;23.366;2023-02-13T07:28:28;96081.28;;;1.15;100.00
9721;BME280;4899;42.644;23.366;2023-02-13T07:30:54;96087.09;;;1.22;100.00
9721;BME280;4899;42.644;23.366;2023-02-13T07:33:20;96084.56;;;1.22;100.00
9721;BME280;4899;42.644;23.366;2023-02-13T07:35:46;96082.84;;;1.16;100.00
9721;BME280;4899;42.644;23.366;2023-02-13T07:38:12;96084.75;;;1.27;100.00
9721;BME280;4899;42.644;23.366;2023-02-13T07:40:38;96096.63;;;1.33;100.00
9721;BME280;4899;42.644;23.366;2023-02-13T07:43:03;96086.22;;;1.41;100.00
9721;BME280;4899;42.644;23.366;2023-02-13T07:45:29;96090.00;;;1.32;100.00
9721;BME280;4899;42.644;23.366;2023-02-13T07:47:55;96099.16;;;1.33;100.00
9721;BME280;4899;42.644;23.366;2023-02-13T07:50:20;96085.13;;;1.31;100.00
9721;BME280;4899;42.644;23.366;2023-02-13T07:52:58;96088.66;;;1.30;100.00
9721;BME280;4899;42.644;23.366;2023-02-13T07:55:23;96091.53;;;1.33;100.00
9721;BME280;4899;42.644;23.366;2023-02-13T07:57:49;96084.63;;;1.47;100.00
9721;BME280;4899;42.644;23.366;2023-02-13T08:00:16;96090.44;;;1.61;100.00
9721;BME280;4899;42.644;23.366;2023-02-13T08:02:42;96090.75;;;1.71;100.00
9721;BME280;4899;42.644;23.366;2023-02-13T08:05:08;96092.69;;;1.75;100.00
9721;BME280;4899;42.644;23.366;2023-02-13T08:07:34;96094.94;;;1.90;100.00
9721;BME280;4899;42.644;23.366;2023-02-13T08:09:59;96093.44;;;2.07;100.00
9721;BME280;4899;42.644;23.366;2023-02-13T08:12:44;96092.53;;;2.27;100.00
9721;BME280;4899;42.644;23.366;2023-02-13T08:15:11;96090.13;;;2.32;100.00
9721;BME280;4899;42.644;23.366;2023-02-13T08:17:37;96094.22;;;2.33;100.00
9721;BME280;4899;42.644;23.366;2023-02-13T08:20:04;96089.56;;;2.30;100.00
9721;BME280;4899;42.644;23.366;2023-02-13T08:22:32;96080.66;;;2.21;100.00
9721;BME280;4899;42.644;23.366;2023-02-13T08:24:58;96076.53;;;2.01;100.00
9721;BME280;4899;42.644;23.366;2023-02-13T08:27:23;96093.25;;;2.09;100.00
9721;BME280;4899;42.644;23.366;2023-02-13T08:29:56;96088.97;;;1.78;100.00
9721;BME280;4899;42.644;23.366;2023-02-13T08:32:23;96087.88;;;1.92;100.00
9721;BME280;4899;42.644;23.366;2023-02-13T08:34:48;96075.16;;;1.74;100.00
9721;BME280;4899;42.644;23.366;2023-02-13T08:37:14;96082.81;;;1.92;100.00
9721;BME280;4899;42.644;23.366;2023-02-13T08:39:39;96086.53;;;1.90;100.00
9721;BME280;4899;42.644;23.366;2023-02-13T08:42:05;96095.34;;;1.87;100.00
9721;BME280;4899;42.644;23.366;2023-02-13T08:44:31;96096.53;;;1.84;100.00
9721;BME280;4899;42.644;23.366;2023-02-13T08:46:56;96090.31;;;1.80;100.00
9721;BME280;4899;42.644;23.366;2023-02-13T08:49:22;96087.53;;;1.89;100.00
9721;BME280;4899;42.644;23.366;2023-02-13T08:51:50;96085.81;;;1.82;100.00
9721;BME280;4899;42.644;23.366;2023-02-13T08:54:16;96098.03;;;1.92;100.00
9721;BME280;4899;42.644;23.366;2023-02-13T08:56:42;96089.00;;;2.03;100.00
9721;BME280;4899;42.644;23.366;2023-02-13T08:59:07;96086.72;;;2.20;100.00
9721;BME280;4899;42.644;23.366;2023-02-13T09:01:33;96087.44;;;2.27;100.00
9721;BME280;4899;42.644;23.366;2023-02-13T09:03:59;96096.00;;;2.32;100.00
9721;BME280;4899;42.644;23.366;2023-02-13T09:06:26;96085.56;;;2.40;100.00
9721;BME280;4899;42.644;23.366;2023-02-13T09:08:53;96097.16;;;2.55;100.00
9721;BME280;4899;42.644;23.366;2023-02-13T09:11:19;96101.91;;;2.51;100.00
9721;BME280;4899;42.644;23.366;2023-02-13T09:13:47;96086.09;;;2.67;100.00
9721;BME280;4899;42.644;23.366;2023-02-13T09:16:13;96090.06;;;3.00;100.00
9721;BME280;4899;42.644;23.366;2023-02-13T09:18:38;96088.66;;;3.22;100.00
9721;BME280;4899;42.644;23.366;2023-02-13T09:21:06;96094.75;;;3.51;100.00
9721;BME280;4899;42.644;23.366;2023-02-13T09:23:34;96079.28;;;3.53;100.00
9721;BME280;4899;42.644;23.366;2023-02-13T09:26:01;96084.28;;;3.71;100.00
9721;BME280;4899;42.644;23.366;2023-02-13T09:28:29;96086.06;;;3.70;100.00
9721;BME280;4899;42.644;23.366;2023-02-13T09:30:55;96060.69;;;3.52;100.00
9721;BME280;4899;42.644;23.366;2023-02-13T09:33:21;96081.34;;;3.74;100.00
9721;BME280;4899;42.644;23.366;2023-02-13T09:35:47;96067.78;;;3.62;100.00
9721;BME280;4899;42.644;23.366;2023-02-13T09:38:12;96058.81;;;3.59;100.00
9721;BME280;4899;42.644;23.366;2023-02-13T09:40:45;96069.00;;;3.29;100.00
9721;BME280;4899;42.644;23.366;2023-02-13T09:43:17;96068.13;;;3.35;100.00
9721;BME280;4899;42.644;23.366;2023-02-13T09:45:47;96062.03;;;3.55;100.00
9721;BME280;4899;42.644;23.366;2023-02-13T09:48:22;96061.72;;;3.63;100.00
9721;BME280;4899;42.644;23.366;2023-02-13T09:50:50;96059.84;;;3.70;100.00
9721;BME280;4899;42.644;23.366;2023-02-13T09:53:20;96056.72;;;3.68;100.00
9721;BME280;4899;42.644;23.366;2023-02-13T09:55:54;96059.44;;;3.73;100.00
9721;BME280;4899;42.644;23.366;2023-02-13T10:01:05;96044.97;;;3.55;100.00
9721;BME280;4899;42.644;23.366;2023-02-13T10:03:45;96046.03;;;3.78;100.00
9721;BME280;4899;42.644;23.366;2023-02-13T10:06:31;96048.25;;;3.74;100.00
9721;BME280;4899;42.644;23.366;2023-02-13T10:09:09;96052.91;;;3.77;100.00
9721;BME280;4899;42.644;23.366;2023-02-13T10:12:01;96042.22;;;3.98;100.00
9721;BME280;4899;42.644;23.366;2023-02-13T10:17:00;96043.31;;;4.14;100.00
9721;BME280;4899;42.644;23.366;2023-02-13T10:22:00;96020.84;;;4.23;100.00
9721;BME280;4899;42.644;23.366;2023-02-13T10:24:30;96029.81;;;4.37;100.00
9721;BME280;4899;42.644;23.366;2023-02-13T10:27:01;96017.63;;;4.39;100.00
9721;BME280;4899;42.644;23.366;2023-02-13T10:29:35;96016.31;;;4.25;100.00
9721;BME280;4899;42.644;23.366;2023-02-13T10:32:26;96009.63;;;3.89;100.00
9721;BME280;4899;42.644;23.366;2023-02-13T10:34:54;95998.03;;;3.81;100.00
9721;BME280;4899;42.644;23.366;2023-02-13T10:37:23;96002.84;;;3.59;100.00
9721;BME280;4899;42.644;23.366;2023-02-13T10:39:51;96000.31;;;3.71;100.00
9721;BME280;4899;42.644;23.366;2023-02-13T10:42:41;96001.84;;;3.60;100.00
9721;BME280;4899;42.644;23.366;2023-02-13T10:51:03;95980.66;;;3.78;100.00
9721;BME280;4899;42.644;23.366;2023-02-13T10:59:46;95973.69;;;4.09;100.00
9721;BME280;4899;42.644;23.366;2023-02-13T11:02:30;95965.78;;;4.45;100.00
9721;BME280;4899;42.644;23.366;2023-02-13T11:05:20;95936.25;;;4.73;100.00
9721;BME280;4899;42.644;23.366;2023-02-13T11:07:47;95957.97;;;5.04;100.00
9721;BME280;4899;42.644;23.366;2023-02-13T11:10:24;95963.13;;;5.20;100.00
9721;BME280;4899;42.644;23.366;2023-02-13T11:12:50;95958.31;;;5.41;100.00
9721;BME280;4899;42.644;23.366;2023-02-13T11:15:31;95962.53;;;5.47;99.31
9721;BME280;4899;42.644;23.366;2023-02-13T11:18:11;95959.75;;;5.48;99.78
9721;BME280;4899;42.644;23.366;2023-02-13T11:20:40;95943.13;;;5.46;100.00
9721;BME280;4899;42.644;23.366;2023-02-13T11:26:13;95921.72;;;5.18;98.16
9721;BME280;4899;42.644;23.366;2023-02-13T11:29:34;95910.25;;;5.33;99.20
9721;BME280;4899;42.644;23.366;2023-02-13T11:31:40;95920.13;;;5.29;99.06
9721;BME280;4899;42.644;23.366;2023-02-13T11:36:50;95901.72;;;5.44;97.11
9721;BME280;4899;42.644;23.366;2023-02-13T11:39:18;95913.19;;;5.58;96.45
9721;BME280;4899;42.644;23.366;2023-02-13T11:41:46;95906.81;;;5.77;95.57
9721;BME280;4899;42.644;23.366;2023-02-13T11:44:26;95901.16;;;5.92;88.34
9721;BME280;4899;42.644;23.366;2023-02-13T11:46:54;95899.94;;;6.16;85.94
9721;BME280;4899;42.644;23.366;2023-02-13T11:49:28;95882.25;;;6.81;83.85
9721;BME280;4899;42.644;23.366;2023-02-13T11:52:02;95883.78;;;7.72;74.02
9721;BME280;4899;42.644;23.366;2023-02-13T11:54:41;95879.13;;;8.94;65.86
9721;BME280;4899;42.644;23.366;2023-02-13T11:59:55;95861.22;;;10.85;66.71
9721;BME280;4899;42.644;23.366;2023-02-13T12:02:29;95874.69;;;11.74;55.76
9721;BME280;4899;42.644;23.366;2023-02-13T12:07:43;95870.75;;;12.72;54.09
9721;BME280;4899;42.644;23.366;2023-02-13T12:12:58;95874.53;;;12.18;52.46
9721;BME280;4899;42.644;23.366;2023-02-13T12:15:31;95871.56;;;11.77;50.67
9721;BME280;4899;42.644;23.366;2023-02-13T12:20:24;95866.09;;;12.74;49.32
9721;BME280;4899;42.644;23.366;2023-02-13T12:23:05;95864.19;;;12.60;45.76
9721;BME280;4899;42.644;23.366;2023-02-13T12:25:52;95856.44;;;12.79;45.17
9721;BME280;4899;42.644;23.366;2023-02-13T12:34:24;95866.38;;;12.72;43.66
9721;BME280;4899;42.644;23.366;2023-02-13T12:45:40;95843.13;;;12.53;46.22
9721;BME280;4899;42.644;23.366;2023-02-13T12:51:03;95837.75;;;11.83;44.33
9721;BME280;4899;42.644;23.366;2023-02-13T12:56:22;95810.59;;;12.52;43.30
9721;BME280;4899;42.644;23.366;2023-02-13T12:59:00;95819.81;;;13.10;43.86
9721;BME280;4899;42.644;23.366;2023-02-13T13:01:50;95823.63;;;12.99;43.64
9721;BME280;4899;42.644;23.366;2023-02-13T13:18:52;95814.09;;;13.13;42.53
9721;BME280;4899;42.644;23.366;2023-02-13T13:21:45;95806.75;;;13.39;41.64
9721;BME280;4899;42.644;23.366;2023-02-13T13:24:32;95801.72;;;13.29;40.65
9721;BME280;4899;42.644;23.366;2023-02-13T13:27:02;95802.16;;;13.17;43.12
9721;BME280;4899;42.644;23.366;2023-02-13T13:29:44;95778.03;;;13.95;41.04
9721;BME280;4899;42.644;23.366;2023-02-13T13:32:16;95798.28;;;14.29;41.21
9721;BME280;4899;42.644;23.366;2023-02-13T13:34:44;95803.47;;;14.29;42.12
9721;BME280;4899;42.644;23.366;2023-02-13T13:38:03;95782.72;;;13.52;39.31
9721;BME280;4899;42.644;23.366;2023-02-13T13:43:10;95810.38;;;14.48;41.86
9721;BME280;4899;42.644;23.366;2023-02-13T13:48:59;95782.16;;;14.32;38.86
9721;BME280;4899;42.644;23.366;2023-02-13T13:51:31;95799.84;;;14.44;40.17
9721;BME280;4899;42.644;23.366;2023-02-13T14:05:02;95780.97;;;13.34;39.73
9721;BME280;4899;42.644;23.366;2023-02-13T14:07:37;95795.34;;;13.40;42.01
9721;BME280;4899;42.644;23.366;2023-02-13T14:18:18;95769.56;;;12.70;39.76
9721;BME280;4899;42.644;23.366;2023-02-13T14:26:26;95760.28;;;13.34;40.36
9721;BME280;4899;42.644;23.366;2023-02-13T14:36:40;95747.59;;;13.65;40.56
9721;BME280;4899;42.644;23.366;2023-02-13T14:39:35;95724.84;;;12.88;40.30
9721;BME280;4899;42.644;23.366;2023-02-13T14:42:02;95752.06;;;12.99;41.58
9721;BME280;4899;42.644;23.366;2023-02-13T14:47:04;95754.09;;;12.32;42.76
9721;BME280;4899;42.644;23.366;2023-02-13T14:49:37;95755.56;;;12.00;43.05
9721;BME280;4899;42.644;23.366;2023-02-13T14:52:07;95757.16;;;11.96;42.98
9721;BME280;4899;42.644;23.366;2023-02-13T14:54:46;95759.34;;;11.84;42.91
9721;BME280;4899;42.644;23.366;2023-02-13T14:57:24;95752.25;;;11.71;43.33
9721;BME280;4899;42.644;23.366;2023-02-13T14:59:55;95755.63;;;11.95;42.99
9721;BME280;4899;42.644;23.366;2023-02-13T15:02:26;95749.25;;;11.11;43.82
9721;BME280;4899;42.644;23.366;2023-02-13T15:05:15;95743.56;;;9.42;45.76
9721;BME280;4899;42.644;23.366;2023-02-13T15:07:51;95745.41;;;8.55;47.68
9721;BME280;4899;42.644;23.366;2023-02-13T15:10:41;95747.31;;;7.92;49.57
9721;BME280;4899;42.644;23.366;2023-02-13T15:13:23;95740.28;;;7.10;51.81
9721;BME280;4899;42.644;23.366;2023-02-13T15:15:54;95742.94;;;6.88;51.36
9721;BME280;4899;42.644;23.366;2023-02-13T15:18:27;95745.22;;;6.53;53.87
9721;BME280;4899;42.644;23.366;2023-02-13T15:20:57;95746.88;;;6.37;54.46
9721;BME280;4899;42.644;23.366;2023-02-13T15:23:27;95749.19;;;6.11;55.83
9721;BME280;4899;42.644;23.366;2023-02-13T15:28:23;95747.56;;;5.83;57.44
9721;BME280;4899;42.644;23.366;2023-02-13T15:33:24;95744.16;;;5.73;58.49
9721;BME280;4899;42.644;23.366;2023-02-13T15:35:58;95739.16;;;5.61;60.91
9721;BME280;4899;42.644;23.366;2023-02-13T15:38:28;95737.63;;;5.43;63.31
9721;BME280;4899;42.644;23.366;2023-02-13T15:41:08;95745.19;;;5.16;68.80
9721;BME280;4899;42.644;23.366;2023-02-13T15:43:39;95751.06;;;5.34;63.29
9721;BME280;4899;42.644;23.366;2023-02-13T15:46:24;95748.38;;;5.23;66.52
9721;BME280;4899;42.644;23.366;2023-02-13T15:48:52;95752.31;;;5.14;66.65
9721;BME280;4899;42.644;23.366;2023-02-13T15:51:20;95759.97;;;5.14;63.94
9721;BME280;4899;42.644;23.366;2023-02-13T15:53:58;95745.25;;;5.00;70.75
9721;BME280;4899;42.644;23.366;2023-02-13T15:56:24;95757.75;;;5.01;69.56
9721;BME280;4899;42.644;23.366;2023-02-13T15:58:51;95756.97;;;4.84;70.75
9721;BME280;4899;42.644;23.366;2023-02-13T16:01:17;95756.72;;;4.69;69.83